Time;durP1;ratioP1;P1;durP2;ratioP2;P2;SDS_P1;SDS_P2;PMS_P1;PMS_P2;Temp;Humidity;BMP_temperature;BMP_pressure;BME280_temperature;BME280_humidity;BME280_pressure;Samples;Min_cycle;Max_cycle;Signal;HPM_P1;HPM_P2
2022/05/17 00:01:26;;;;;;;3.10;2.00;;;19.30;65.60;;;;;;5094338;28;20457;-67
2022/05/17 00:03:54;;;;;;;3.63;2.03;;;19.30;65.50;;;;;;5094331;28;20453;-67
2022/05/17 00:06:21;;;;;;;5.20;2.20;;;19.40;65.80;;;;;;5093812;28;20468;-67
2022/05/17 00:08:48;;;;;;;3.50;2.37;;;19.40;65.50;;;;;;5093866;28;20587;-68
2022/05/17 00:11:15;;;;;;;3.43;2.20;;;19.30;65.60;;;;;;5094162;28;20450;-67
2022/05/17 00:13:42;;;;;;;4.33;2.37;;;19.30;66.10;;;;;;5094083;28;20477;-67
2022/05/17 00:16:08;;;;;;;3.23;2.30;;;19.30;66.30;;;;;;5094127;28;20464;-67
2022/05/17 00:18:36;;;;;;;5.33;2.20;;;19.30;66.20;;;;;;5094089;28;20457;-67
2022/05/17 00:21:05;;;;;;;4.60;2.47;;;19.30;66.10;;;;;;5093949;28;20492;-67
2022/05/17 00:23:32;;;;;;;3.67;1.87;;;19.40;66.00;;;;;;5094071;28;20457;-67
2022/05/17 00:25:59;;;;;;;3.43;2.17;;;19.40;65.90;;;;;;5093584;28;20461;-67
2022/05/17 00:28:27;;;;;;;5.23;2.30;;;19.40;66.00;;;;;;5093596;28;20935;-67
2022/05/17 00:30:54;;;;;;;2.80;2.40;;;19.40;66.00;;;;;;5093826;28;20472;-67
2022/05/17 00:33:21;;;;;;;2.83;1.80;;;19.40;66.20;;;;;;5093946;28;20477;-67
2022/05/17 00:35:48;;;;;;;2.80;2.50;;;19.40;65.80;;;;;;5094260;28;20496;-67
2022/05/17 00:38:17;;;;;;;5.40;2.43;;;19.40;66.00;;;;;;5093851;28;20461;-67
2022/05/17 00:40:44;;;;;;;3.43;2.03;;;19.40;66.00;;;;;;5093741;28;20488;-67
2022/05/17 00:43:29;;;;;;;3.40;2.20;;;19.40;66.40;;;;;;5093684;28;20464;-67
2022/05/17 00:46:00;;;;;;;6.80;2.47;;;19.40;67.40;;;;;;5097940;28;20747;-67
2022/05/17 00:48:28;;;;;;;4.00;2.40;;;19.40;69.30;;;;;;5097950;28;20441;-67
2022/05/17 00:50:56;;;;;;;3.47;2.70;;;19.50;71.10;;;;;;5097751;28;20514;-67
2022/05/17 00:53:27;;;;;;;5.93;2.10;;;19.40;71.80;;;;;;5097635;28;20587;-67
2022/05/17 00:55:57;;;;;;;4.23;2.47;;;19.40;75.80;;;;;;5097750;28;20502;-67
2022/05/17 00:58:28;;;;;;;2.80;2.47;;;19.30;77.60;;;;;;5097811;28;20453;-67
2022/05/17 01:01:02;;;;;;;8.47;2.57;;;19.30;78.20;;;;;;5097341;28;20472;-67
2022/05/17 01:03:34;;;;;;;4.83;2.23;;;19.30;81.20;;;;;;5097679;28;20433;-67
2022/05/17 01:06:05;;;;;;;2.40;2.20;;;19.20;81.20;;;;;;5097892;28;20452;-70
2022/05/17 01:08:33;;;;;;;6.30;2.73;;;19.20;82.90;;;;;;5097295;28;20524;-69
2022/05/17 01:11:00;;;;;;;4.63;2.93;;;19.20;82.80;;;;;;5097383;28;20468;-69
2022/05/17 01:16:12;;;;;;;5.40;2.30;;;19.10;89.50;;;;;;5097205;28;20924;-70
2022/05/17 01:18:41;;;;;;;3.67;2.47;;;19.10;91.40;;;;;;5097281;28;20940;-70
2022/05/17 01:21:10;;;;;;;4.97;2.33;;;19.10;95.40;;;;;;5097525;28;20461;-70
2022/05/17 01:23:38;;;;;;;6.20;3.10;;;19.10;98.40;;;;;;5097378;28;20815;-69
2022/05/17 01:26:05;;;;;;;4.13;2.87;;;19.10;96.00;;;;;;5096936;28;20868;-69
2022/05/17 01:28:36;;;;;;;3.57;2.40;;;19.10;95.10;;;;;;5096942;28;20902;-69
2022/05/17 01:31:05;;;;;;;3.77;2.80;;;19.10;96.00;;;;;;5097128;28;20448;-69
2022/05/17 01:33:33;;;;;;;9.60;3.33;;;19.10;96.20;;;;;;5096933;28;20477;-69
2022/05/17 01:36:00;;;;;;;3.83;3.10;;;19.10;96.60;;;;;;5096935;28;20453;-67
2022/05/17 01:38:29;;;;;;;5.47;3.10;;;19.00;97.40;;;;;;5096783;28;20464;-67
2022/05/17 01:40:55;;;;;;;4.30;2.90;;;19.00;99.90;;;;;;5096653;28;20494;-67
2022/05/17 01:43:22;;;;;;;5.53;2.63;;;19.00;99.90;;;;;;5096654;28;20460;-67
2022/05/17 01:45:49;;;;;;;3.53;3.07;;;19.00;99.90;;;;;;5096758;28;20461;-67
2022/05/17 01:48:15;;;;;;;2.90;2.50;;;18.90;99.90;;;;;;5097290;28;20501;-67
2022/05/17 01:50:42;;;;;;;4.40;2.27;;;18.80;99.90;;;;;;5097253;28;20456;-67
2022/05/17 01:53:09;;;;;;;5.57;3.07;;;18.80;99.90;;;;;;5096893;28;20481;-67
2022/05/17 01:55:37;;;;;;;6.47;3.17;;;18.70;99.90;;;;;;5095846;28;20522;-67
2022/05/17 01:58:04;;;;;;;7.40;3.27;;;18.70;99.90;;;;;;5096374;28;20465;-67
2022/05/17 02:00:31;;;;;;;5.50;3.20;;;18.60;99.90;;;;;;5095993;28;20514;-67
2022/05/17 02:02:58;;;;;;;6.00;3.07;;;18.50;99.90;;;;;;5096108;28;20917;-67
2022/05/17 02:05:26;;;;;;;6.20;3.00;;;18.40;99.90;;;;;;5096020;28;20933;-67
2022/05/17 02:07:53;;;;;;;4.63;3.27;;;18.40;99.90;;;;;;5096059;28;20542;-67
2022/05/17 02:10:25;;;;;;;7.77;3.53;;;18.30;99.90;;;;;;5095778;28;20936;-67
2022/05/17 02:12:53;;;;;;;5.43;3.53;;;18.20;99.90;;;;;;5096169;28;20479;-67
2022/05/17 02:15:20;;;;;;;7.43;3.40;;;18.10;99.90;;;;;;5095661;28;20930;-67
2022/05/17 02:17:47;;;;;;;3.73;2.90;;;17.90;99.90;;;;;;5096128;28;20551;-67
2022/05/17 02:20:14;;;;;;;6.10;3.70;;;17.80;99.90;;;;;;5096262;28;20453;-67
2022/05/17 02:22:41;;;;;;;7.40;3.70;;;17.70;99.90;;;;;;5095959;28;20832;-67
2022/05/17 02:25:09;;;;;;;4.30;3.60;;;17.60;99.90;;;;;;5095961;28;20461;-67
2022/05/17 02:27:36;;;;;;;3.97;3.53;;;17.60;99.90;;;;;;5095790;28;20775;-67
2022/05/17 02:30:05;;;;;;;4.53;3.30;;;17.50;99.90;;;;;;5095691;28;20458;-67
2022/05/17 02:32:32;;;;;;;4.80;3.30;;;17.50;99.90;;;;;;5095618;28;20468;-67
2022/05/17 02:34:59;;;;;;;6.07;3.87;;;17.50;99.90;;;;;;5095678;28;20762;-67
2022/05/17 02:37:26;;;;;;;5.60;4.27;;;17.50;99.90;;;;;;5095349;28;20533;-67
2022/05/17 02:39:53;;;;;;;5.47;3.43;;;17.40;99.90;;;;;;5095533;28;20768;-67
2022/05/17 02:42:20;;;;;;;4.60;3.53;;;17.40;99.90;;;;;;5095641;28;20453;-67
2022/05/17 02:44:46;;;;;;;8.03;3.40;;;17.30;99.90;;;;;;5095854;28;20462;-67
2022/05/17 02:47:15;;;;;;;7.67;3.70;;;17.20;99.90;;;;;;5095350;28;20917;-67
2022/05/17 02:49:44;;;;;;;5.60;3.77;;;17.10;99.90;;;;;;5095868;28;20479;-67
2022/05/17 02:52:12;;;;;;;3.90;3.53;;;17.10;99.90;;;;;;5095806;28;20472;-67
2022/05/17 02:54:39;;;;;;;4.43;2.97;;;17.10;99.90;;;;;;5095218;28;20477;-67
2022/05/17 02:57:07;;;;;;;6.20;4.27;;;17.00;99.90;;;;;;5095455;28;20534;-67
2022/05/17 02:59:33;;;;;;;6.67;3.73;;;17.00;99.90;;;;;;5095664;28;20471;-67
2022/05/17 03:02:00;;;;;;;4.53;3.87;;;17.10;99.90;;;;;;5095830;28;20918;-67
2022/05/17 03:04:29;;;;;;;8.07;4.30;;;17.10;99.90;;;;;;5094981;28;20930;-67
2022/05/17 03:06:56;;;;;;;4.60;3.00;;;17.10;99.90;;;;;;5094563;28;20530;-67
2022/05/17 03:09:23;;;;;;;7.30;3.70;;;17.10;99.90;;;;;;5095112;28;20448;-67
2022/05/17 03:11:50;;;;;;;4.57;3.13;;;17.00;99.90;;;;;;5095266;28;20449;-67
2022/05/17 03:14:18;;;;;;;4.63;2.90;;;17.00;99.90;;;;;;5094975;28;20477;-67
2022/05/17 03:16:45;;;;;;;6.83;3.50;;;17.00;99.90;;;;;;5094569;28;20494;-67
2022/05/17 03:19:12;;;;;;;6.50;3.20;;;16.90;99.90;;;;;;5094699;28;20514;-67
2022/05/17 03:21:40;;;;;;;5.87;3.43;;;16.90;99.90;;;;;;5094449;28;20457;-67
2022/05/17 03:24:07;;;;;;;7.50;3.10;;;16.90;99.90;;;;;;5094486;28;20464;-69
2022/05/17 03:26:34;;;;;;;4.23;3.50;;;16.80;99.90;;;;;;5094723;28;20461;-69
2022/05/17 03:29:01;;;;;;;5.97;3.60;;;16.80;99.90;;;;;;5094676;28;20468;-69
2022/05/17 03:31:28;;;;;;;4.50;3.57;;;16.80;99.90;;;;;;5094367;28;20514;-69
2022/05/17 03:33:55;;;;;;;4.40;3.77;;;16.70;99.90;;;;;;5094663;28;20488;-69
2022/05/17 03:36:22;;;;;;;4.93;3.20;;;16.70;99.90;;;;;;5094629;28;20453;-69
2022/05/17 03:38:50;;;;;;;4.87;3.40;;;16.70;99.90;;;;;;5094456;28;20458;-69
2022/05/17 03:41:16;;;;;;;12.03;3.63;;;16.60;99.90;;;;;;5094597;28;20786;-69
2022/05/17 03:43:43;;;;;;;7.43;3.40;;;16.50;99.90;;;;;;5094253;28;20476;-69
2022/05/17 03:46:10;;;;;;;7.73;3.83;;;16.40;99.90;;;;;;5094000;28;20468;-69
2022/05/17 03:48:37;;;;;;;8.00;4.87;;;16.30;99.90;;;;;;5094082;28;20842;-69
2022/05/17 03:51:12;;;;;;;7.50;4.87;;;16.20;99.90;;;;;;5094134;28;20511;-69
2022/05/17 03:53:38;;;;;;;8.20;4.40;;;16.10;99.90;;;;;;5094105;28;20461;-69
2022/05/17 03:56:07;;;;;;;9.10;5.10;;;16.00;99.90;;;;;;5094064;28;20450;-69
2022/05/17 03:58:33;;;;;;;4.87;4.27;;;15.90;99.90;;;;;;5094175;28;20466;-69
2022/05/17 04:01:00;;;;;;;8.20;4.00;;;15.90;99.90;;;;;;5094111;28;20582;-69
2022/05/17 04:03:27;;;;;;;6.60;5.40;;;15.80;99.90;;;;;;5093915;28;20777;-69
2022/05/17 04:05:53;;;;;;;6.73;4.70;;;15.90;99.90;;;;;;5094073;28;20476;-69
2022/05/17 04:08:20;;;;;;;5.73;4.43;;;15.90;99.90;;;;;;5093667;28;20485;-69
2022/05/17 04:10:47;;;;;;;7.17;4.73;;;15.90;99.90;;;;;;5093077;28;20453;-69
2022/05/17 04:13:15;;;;;;;6.10;4.73;;;15.80;99.90;;;;;;5093746;28;20479;-69
2022/05/17 04:15:42;;;;;;;6.20;4.10;;;15.70;99.90;;;;;;5093950;28;20515;-69
2022/05/17 04:18:09;;;;;;;5.10;4.23;;;15.70;99.90;;;;;;5093557;28;20461;-69
2022/05/17 04:20:36;;;;;;;4.23;3.63;;;15.60;99.90;;;;;;5093585;28;20472;-69
2022/05/17 04:23:03;;;;;;;5.10;4.43;;;15.50;99.90;;;;;;5094145;28;20457;-69
2022/05/17 04:25:30;;;;;;;5.73;4.20;;;15.50;99.90;;;;;;5093798;28;20464;-69
2022/05/17 04:27:57;;;;;;;6.93;4.77;;;15.60;99.90;;;;;;5093941;28;20453;-69
2022/05/17 04:30:25;;;;;;;4.50;3.80;;;15.60;99.90;;;;;;5093869;28;20828;-70
2022/05/17 04:32:52;;;;;;;5.73;5.23;;;15.50;99.90;;;;;;5093812;28;20464;-69
2022/05/17 04:35:19;;;;;;;7.20;4.40;;;15.50;99.90;;;;;;5094042;28;20516;-69
2022/05/17 04:37:47;;;;;;;7.27;4.23;;;15.50;99.90;;;;;;5093510;28;20961;-69
2022/05/17 04:40:14;;;;;;;4.83;4.33;;;15.50;99.90;;;;;;5093217;28;20530;-69
2022/05/17 04:42:43;;;;;;;9.03;4.63;;;15.50;99.90;;;;;;5093522;28;20522;-69
2022/05/17 04:45:13;;;;;;;34.10;25.00;;;15.50;99.90;;;;;;5093507;28;20910;-69
2022/05/17 04:47:42;;;;;;;8.30;4.50;;;15.50;99.90;;;;;;5093813;28;20773;-70
2022/05/17 04:50:11;;;;;;;5.47;4.13;;;15.50;99.90;;;;;;5093769;28;20467;-69
2022/05/17 04:52:37;;;;;;;4.93;3.80;;;15.50;99.90;;;;;;5093422;28;20468;-69
2022/05/17 04:55:05;;;;;;;8.33;4.77;;;15.50;99.90;;;;;;5093309;28;20481;-69
2022/05/17 04:57:32;;;;;;;6.27;4.87;;;15.60;99.90;;;;;;5093479;28;20464;-69
2022/05/17 04:59:59;;;;;;;7.07;4.93;;;15.60;99.90;;;;;;5093742;28;20471;-69
2022/05/17 05:02:26;;;;;;;10.93;5.03;;;15.60;99.90;;;;;;5093199;28;20604;-70
2022/05/17 05:04:54;;;;;;;8.37;5.50;;;15.60;99.90;;;;;;5093745;28;20453;-69
2022/05/17 05:07:21;;;;;;;5.80;4.87;;;15.50;99.90;;;;;;5093035;28;20496;-70
2022/05/17 05:09:48;;;;;;;17.40;12.60;;;15.50;99.90;;;;;;5093519;28;20464;-70
2022/05/17 05:12:15;;;;;;;11.07;7.27;;;15.60;99.90;;;;;;5093372;28;20550;-70
2022/05/17 05:14:42;;;;;;;6.13;4.57;;;15.60;99.90;;;;;;5093376;28;20473;-70
2022/05/17 05:17:09;;;;;;;6.77;5.07;;;15.60;99.90;;;;;;5092907;28;20974;-70
2022/05/17 05:19:36;;;;;;;7.50;5.07;;;15.70;99.90;;;;;;5093672;28;20548;-70
2022/05/17 05:22:06;;;;;;;5.83;4.80;;;15.80;99.90;;;;;;5092884;28;20921;-70
2022/05/17 05:24:33;;;;;;;11.33;7.80;;;15.80;99.90;;;;;;5093196;28;20445;-70
2022/05/17 05:27:00;;;;;;;9.13;4.97;;;15.90;99.90;;;;;;5093097;28;20518;-69
2022/05/17 05:29:27;;;;;;;7.17;5.10;;;15.90;99.90;;;;;;5093322;28;20755;-70
2022/05/17 05:31:53;;;;;;;6.77;5.50;;;15.90;99.90;;;;;;5095504;28;20540;-68
2022/05/17 05:34:21;;;;;;;5.47;4.93;;;15.80;99.90;;;;;;5096698;28;20483;-68
2022/05/17 05:36:48;;;;;;;7.27;5.40;;;15.80;99.90;;;;;;5096981;28;20461;-70
2022/05/17 05:39:17;;;;;;;9.57;6.50;;;15.80;99.90;;;;;;5098042;28;20801;-70
2022/05/17 05:41:44;;;;;;;7.90;5.90;;;15.90;99.90;;;;;;5098166;28;20486;-70
2022/05/17 05:44:10;;;;;;;7.10;5.90;;;15.90;99.90;;;;;;5098325;28;20870;-70
2022/05/17 05:46:37;;;;;;;7.43;5.00;;;15.80;99.90;;;;;;5097344;28;20453;-69
2022/05/17 05:49:04;;;;;;;9.20;5.50;;;15.90;99.90;;;;;;5097295;28;20457;-70
2022/05/17 05:51:30;;;;;;;5.93;4.70;;;16.00;99.90;;;;;;5096834;28;20476;-70
2022/05/17 05:53:57;;;;;;;5.57;5.07;;;15.90;99.90;;;;;;5097514;28;20796;-70
2022/05/17 05:56:25;;;;;;;10.83;4.87;;;15.90;99.90;;;;;;5097392;28;20465;-70
2022/05/17 05:58:52;;;;;;;9.03;5.20;;;15.90;99.90;;;;;;5097701;28;20747;-70
2022/05/17 06:01:18;;;;;;;5.73;5.20;;;16.00;99.90;;;;;;5097815;28;20461;-70
2022/05/17 06:03:45;;;;;;;8.90;4.80;;;15.90;99.90;;;;;;5097409;28;20449;-69
2022/05/17 06:06:12;;;;;;;5.90;5.30;;;15.90;99.90;;;;;;5098333;28;20460;-69
2022/05/17 06:08:39;;;;;;;7.67;5.27;;;15.90;99.90;;;;;;5097289;28;20481;-70
2022/05/17 06:11:06;;;;;;;7.80;5.57;;;16.00;99.90;;;;;;5097740;28;20460;-70
2022/05/17 06:13:35;;;;;;;6.30;5.47;;;15.90;99.90;;;;;;5097784;28;20453;-70
2022/05/17 06:16:02;;;;;;;5.80;4.90;;;16.00;99.90;;;;;;5097397;28;20844;-70
2022/05/17 06:18:29;;;;;;;10.40;5.40;;;16.00;99.90;;;;;;5098344;28;20457;-70
2022/05/17 06:20:56;;;;;;;7.40;4.90;;;16.00;99.90;;;;;;5098378;28;20509;-70
2022/05/17 06:23:25;;;;;;;10.73;5.63;;;16.00;99.90;;;;;;5097805;28;20457;-69
2022/05/17 06:25:52;;;;;;;5.57;4.80;;;15.90;99.90;;;;;;5097911;28;20536;-70
2022/05/17 06:28:19;;;;;;;9.27;5.47;;;15.90;99.90;;;;;;5097149;28;20482;-70
2022/05/17 06:30:47;;;;;;;9.10;5.13;;;16.00;99.90;;;;;;5097299;28;20453;-70
2022/05/17 06:33:15;;;;;;;6.73;5.40;;;16.10;99.90;;;;;;5097418;28;20449;-70
2022/05/17 06:35:43;;;;;;;9.17;5.93;;;16.10;99.90;;;;;;5096936;28;20507;-70
2022/05/17 06:38:10;;;;;;;6.20;5.27;;;16.20;99.90;;;;;;5096988;28;20517;-70
2022/05/17 06:40:38;;;;;;;5.90;5.20;;;16.30;99.90;;;;;;5097657;28;20472;-69
2022/05/17 06:43:05;;;;;;;7.17;6.47;;;16.30;99.90;;;;;;5096557;28;20488;-69
2022/05/17 06:45:33;;;;;;;9.40;5.43;;;16.30;99.90;;;;;;5096350;28;20460;-69
2022/05/17 06:48:01;;;;;;;8.17;5.50;;;16.40;99.90;;;;;;5096900;28;20544;-70
2022/05/17 06:50:28;;;;;;;8.43;5.80;;;16.40;99.90;;;;;;5096892;28;20590;-69
2022/05/17 06:52:55;;;;;;;7.53;6.27;;;16.40;99.90;;;;;;5097545;28;20959;-69
2022/05/17 06:55:22;;;;;;;7.47;4.97;;;16.40;99.90;;;;;;5097470;28;20477;-69
2022/05/17 06:57:50;;;;;;;6.13;5.10;;;16.50;99.90;;;;;;5096950;28;20800;-69
2022/05/17 07:00:19;;;;;;;10.10;5.77;;;16.60;99.90;;;;;;5096347;28;20495;-69
2022/05/17 07:02:46;;;;;;;8.77;5.83;;;16.70;99.90;;;;;;5096335;28;20469;-69
2022/05/17 07:05:14;;;;;;;7.00;4.40;;;16.80;99.90;;;;;;5096310;28;20461;-69
2022/05/17 07:07:41;;;;;;;7.13;5.20;;;16.80;99.90;;;;;;5095866;28;20489;-69
2022/05/17 07:13:08;;;;;;;6.13;4.57;;;16.90;99.90;;;;;;5095554;28;20769;-69
2022/05/17 07:15:35;;;;;;;8.37;7.13;;;17.00;99.90;;;;;;5095725;28;20465;-70
2022/05/17 07:18:02;;;;;;;9.90;5.27;;;17.20;99.90;;;;;;5095316;28;20514;-69
2022/05/17 07:20:30;;;;;;;7.23;5.10;;;17.40;99.90;;;;;;5095808;28;20457;-70
2022/05/17 07:22:57;;;;;;;7.10;5.47;;;17.60;99.90;;;;;;5095923;28;20565;-70
2022/05/17 07:25:24;;;;;;;14.60;12.40;;;17.60;99.90;;;;;;5096208;28;20457;-70
2022/05/17 07:27:50;;;;;;;8.93;6.77;;;17.80;99.90;;;;;;5095572;28;20450;-70
2022/05/17 07:30:18;;;;;;;6.90;4.97;;;17.90;99.90;;;;;;5095110;28;20458;-70
2022/05/17 07:32:46;;;;;;;6.17;5.30;;;18.10;99.90;;;;;;5095125;28;20457;-70
2022/05/17 07:35:13;;;;;;;7.93;4.70;;;18.40;99.90;;;;;;5095224;28;20571;-70
2022/05/17 07:37:42;;;;;;;9.93;5.23;;;18.50;99.90;;;;;;5094557;28;21000;-74
2022/05/17 07:40:10;;;;;;;8.50;4.97;;;18.60;99.90;;;;;;5093979;28;20457;-74
2022/05/17 07:42:37;;;;;;;23.63;16.93;;;18.70;99.90;;;;;;5094438;28;20457;-73
2022/05/17 07:45:05;;;;;;;7.33;4.97;;;18.80;99.90;;;;;;5094080;28;20826;-73
2022/05/17 07:47:33;;;;;;;11.23;6.13;;;18.60;99.90;;;;;;5093866;28;20464;-73
2022/05/17 07:50:00;;;;;;;6.10;4.83;;;18.30;99.90;;;;;;5094040;28;20457;-73
2022/05/17 07:52:26;;;;;;;6.93;6.10;;;18.20;99.90;;;;;;5094082;28;20471;-73
2022/05/17 07:54:54;;;;;;;10.30;6.20;;;18.20;99.90;;;;;;5093419;28;20803;-73
2022/05/17 07:57:23;;;;;;;8.40;6.60;;;18.20;99.90;;;;;;5093987;28;20453;-74
2022/05/17 07:59:50;;;;;;;8.17;6.93;;;18.20;99.90;;;;;;5093398;28;20571;-72
2022/05/17 08:02:17;;;;;;;10.00;7.70;;;18.10;99.90;;;;;;5094281;28;20552;-72
2022/05/17 08:04:43;;;;;;;10.87;7.67;;;18.10;99.90;;;;;;5101863;28;20453;-72
2022/05/17 08:07:10;;;;;;;9.70;7.80;;;18.00;99.90;;;;;;5103807;28;20489;-71
2022/05/17 08:09:37;;;;;;;9.93;7.23;;;18.00;99.90;;;;;;5105880;28;20445;-71
2022/05/17 08:12:09;;;;;;;10.63;7.67;;;18.10;99.90;;;;;;5107413;28;20942;-71
2022/05/17 08:14:38;;;;;;;9.07;7.43;;;18.10;99.90;;;;;;5107880;28;20440;-72
2022/05/17 08:17:07;;;;;;;12.20;8.03;;;18.30;99.90;;;;;;5109468;28;20457;-72
2022/05/17 08:19:34;;;;;;;9.53;7.70;;;18.40;99.90;;;;;;5107462;28;20449;-72
2022/05/17 08:22:01;;;;;;;9.73;7.00;;;18.50;99.90;;;;;;5107581;28;20781;-73
2022/05/17 08:24:28;;;;;;;13.60;10.67;;;18.60;99.90;;;;;;5108136;28;20449;-73
2022/05/17 08:29:40;;;;;;;8.10;6.43;;;18.90;99.90;;;;;;5106488;28;20425;-72
2022/05/17 08:35:01;;;;;;;9.90;6.10;;;19.20;99.90;;;;;;5067482;28;20463;-72
2022/05/17 08:37:28;;;;;;;9.50;6.47;;;19.30;99.90;;;;;;5107792;28;20510;-72
2022/05/17 08:39:55;;;;;;;10.50;6.60;;;19.40;99.90;;;;;;5107941;28;20457;-70
2022/05/17 08:42:30;;;;;;;9.47;6.20;;;19.50;99.90;;;;;;5108143;28;20461;-72
2022/05/17 08:45:05;;;;;;;9.03;6.17;;;19.60;99.90;;;;;;5106024;28;20449;-72
2022/05/17 08:47:42;;;;;;;8.47;6.10;;;19.50;99.90;;;;;;5106681;28;20456;-72
2022/05/17 08:50:12;;;;;;;7.80;5.70;;;19.50;99.90;;;;;;5105828;28;20445;-72
2022/05/17 08:52:40;;;;;;;8.50;5.87;;;19.40;99.90;;;;;;5106005;28;20456;-71
2022/05/17 08:55:16;;;;;;;7.83;6.90;;;19.50;99.90;;;;;;5105222;28;20477;-72
2022/05/17 08:57:46;;;;;;;8.10;5.60;;;19.60;99.90;;;;;;5104430;28;20457;-72
2022/05/17 09:00:18;;;;;;;7.03;5.43;;;19.50;99.90;;;;;;5103971;28;20468;-73
2022/05/17 09:02:49;;;;;;;6.90;5.13;;;19.30;99.90;;;;;;5102809;28;20433;-72
2022/05/17 09:05:30;;;;;;;7.37;5.40;;;19.10;99.90;;;;;;5104110;28;20624;-71
2022/05/17 09:08:07;;;;;;;5.90;5.03;;;19.00;99.90;;;;;;5107078;28;20476;-72
2022/05/17 09:10:37;;;;;;;6.63;5.17;;;19.00;99.90;;;;;;5106298;28;20540;-72
2022/05/17 09:13:11;;;;;;;5.67;5.17;;;19.00;99.90;;;;;;5105398;28;20433;-72
2022/05/17 09:15:40;;;;;;;12.23;5.90;;;19.10;99.90;;;;;;5105261;28;20480;-71
2022/05/17 09:18:10;;;;;;;8.07;6.03;;;19.20;99.90;;;;;;5105068;28;20464;-72
2022/05/17 09:20:39;;;;;;;6.70;5.50;;;19.20;99.90;;;;;;5105587;28;20449;-72
2022/05/17 09:23:07;;;;;;;7.10;6.17;;;19.30;99.90;;;;;;5104536;28;20453;-71
2022/05/17 09:25:50;;;;;;;6.00;5.50;;;19.30;99.90;;;;;;5105628;28;20445;-71
2022/05/17 09:28:20;;;;;;;6.40;5.77;;;19.30;99.90;;;;;;5106219;28;20453;-71
2022/05/17 09:30:49;;;;;;;6.73;5.47;;;19.30;99.90;;;;;;5106008;28;20532;-71
2022/05/17 09:33:21;;;;;;;8.70;5.87;;;19.20;99.90;;;;;;5106204;28;20556;-71
2022/05/17 09:35:57;;;;;;;8.30;6.13;;;19.30;99.90;;;;;;5106821;28;20545;-71
2022/05/17 09:38:24;;;;;;;6.40;5.63;;;19.50;99.90;;;;;;5105454;28;20472;-71
2022/05/17 09:40:53;;;;;;;10.17;5.67;;;19.70;99.90;;;;;;5103065;28;20461;-71
2022/05/17 09:43:34;;;;;;;6.87;5.83;;;19.90;99.90;;;;;;5103371;28;20453;-71
2022/05/17 09:46:09;;;;;;;6.57;5.97;;;20.00;99.90;;;;;;5104103;28;20441;-72
2022/05/17 09:54:08;;;;;;;9.33;5.43;;;20.50;99.90;;;;;;5106385;28;20432;-71
2022/05/17 09:56:34;;;;;;;12.00;5.63;;;20.70;99.90;;;;;;5105913;28;20473;-71
2022/05/17 09:59:01;;;;;;;4.97;4.50;;;20.80;99.90;;;;;;5106830;28;20449;-72
2022/05/17 10:01:39;;;;;;;9.70;5.20;;;20.90;99.90;;;;;;5105742;28;20465;-71
2022/05/17 10:04:09;;;;;;;7.53;4.93;;;21.00;99.90;;;;;;5104876;28;20444;-71
2022/05/17 10:06:38;;;;;;;7.97;5.53;;;21.20;99.90;;;;;;5107361;28;20457;-71
2022/05/17 10:09:08;;;;;;;5.60;4.50;;;21.20;99.90;;;;;;5109776;28;20445;-74
2022/05/17 10:11:46;;;;;;;7.03;4.50;;;21.30;99.90;;;;;;5112726;28;20444;-72
2022/05/17 10:14:26;;;;;;;6.30;4.33;;;21.50;99.90;;;;;;5113544;28;20421;-72
2022/05/17 10:17:00;;;;;;;4.87;4.30;;;21.80;99.90;;;;;;5113620;28;20525;-72
2022/05/17 10:19:45;;;;;;;6.53;4.70;;;22.00;99.90;;;;;;5114084;28;20437;-72
2022/05/17 10:22:25;;;;;;;6.60;4.97;;;22.30;99.90;;;;;;5114160;28;20471;-74
2022/05/17 10:24:58;;;;;;;8.17;4.73;;;22.50;99.90;;;;;;5113288;28;20738;-73
2022/05/17 10:27:31;;;;;;;5.37;4.30;;;22.60;99.90;;;;;;5114014;28;20434;-73
2022/05/17 10:30:03;;;;;;;6.00;4.70;;;22.70;99.90;;;;;;5113158;28;20437;-73
2022/05/17 10:32:35;;;;;;;7.83;7.10;;;22.80;99.90;;;;;;5114007;28;20448;-72
2022/05/17 10:35:09;;;;;;;5.97;4.53;;;22.90;99.90;;;;;;5112747;28;20449;-74
2022/05/17 10:37:44;;;;;;;9.47;4.60;;;22.80;99.90;;;;;;5113359;28;20760;-73
2022/05/17 10:40:14;;;;;;;5.60;4.30;;;22.90;99.90;;;;;;5111979;28;20433;-72
2022/05/17 10:42:43;;;;;;;6.33;4.90;;;22.90;99.90;;;;;;5111305;28;20442;-73
2022/05/17 10:45:16;;;;;;;5.20;4.70;;;22.80;99.90;;;;;;5111509;28;20449;-73
2022/05/17 10:47:49;;;;;;;4.57;4.10;;;22.70;99.90;;;;;;5112770;28;20437;-72
2022/05/17 10:50:23;;;;;;;5.43;3.93;;;22.60;99.90;;;;;;5112558;28;20433;-73
2022/05/17 10:53:10;;;;;;;6.13;3.93;;;22.60;99.90;;;;;;5112899;28;20445;-72
2022/05/17 10:55:48;;;;;;;7.17;4.20;;;22.60;99.90;;;;;;5110479;28;20480;-72
2022/05/17 10:58:25;;;;;;;4.67;4.23;;;22.70;99.90;;;;;;5110278;28;20433;-73
2022/05/17 11:00:58;;;;;;;4.30;3.90;;;22.70;99.90;;;;;;5109360;28;20446;-73
2022/05/17 11:03:50;;;;;;;5.37;4.00;;;22.80;99.90;;;;;;5110494;28;20446;-72
2022/05/17 11:06:28;;;;;;;5.00;4.27;;;22.80;99.90;;;;;;5111496;28;20452;-72
2022/05/17 11:09:03;;;;;;;5.70;3.77;;;22.70;99.90;;;;;;5111561;28;20487;-72
2022/05/17 11:11:44;;;;;;;6.67;3.80;;;22.70;99.90;;;;;;5111226;28;20437;-72
2022/05/17 11:14:18;;;;;;;5.50;3.93;;;22.70;99.90;;;;;;5111741;28;20456;-72
2022/05/17 11:16:55;;;;;;;6.93;4.47;;;22.80;99.90;;;;;;5111336;28;20472;-72
2022/05/17 11:19:28;;;;;;;9.10;4.30;;;22.90;99.90;;;;;;5113333;28;20452;-72
2022/05/17 11:22:00;;;;;;;4.43;3.67;;;22.80;99.90;;;;;;5113429;28;20413;-74
2022/05/17 11:24:52;;;;;;;7.47;4.10;;;22.80;99.90;;;;;;5111161;28;20433;-72
2022/05/17 11:27:36;;;;;;;5.20;3.73;;;22.90;99.90;;;;;;5111546;28;20434;-72
2022/05/17 11:30:13;;;;;;;5.13;4.57;;;23.10;99.90;;;;;;5111277;28;20434;-73
2022/05/17 11:33:01;;;;;;;6.40;3.90;;;23.20;99.90;;;;;;5109967;28;20878;-73
2022/05/17 11:35:47;;;;;;;5.33;3.40;;;23.30;99.90;;;;;;5107628;28;20464;-73
2022/05/17 11:38:20;;;;;;;10.10;8.50;;;23.70;99.90;;;;;;5108812;28;20441;-72
2022/05/17 11:40:58;;;;;;;5.70;4.50;;;24.00;99.90;;;;;;5111168;28;20433;-72
2022/05/17 11:43:44;;;;;;;6.40;4.30;;;24.30;99.90;;;;;;5107971;28;20437;-72
2022/05/17 11:46:56;;;;;;;7.37;4.87;;;24.60;99.90;;;;;;5110285;28;20552;-72
2022/05/17 11:49:41;;;;;;;5.13;3.97;;;24.30;99.90;;;;;;5112568;28;20560;-71
2022/05/17 11:52:37;;;;;;;6.20;4.20;;;24.00;99.90;;;;;;5114188;28;20453;-72
2022/05/17 11:55:09;;;;;;;10.70;4.13;;;23.90;99.90;;;;;;5113681;28;20438;-72
2022/05/17 11:58:03;;;;;;;7.30;3.80;;;24.10;99.90;;;;;;5113008;28;20466;-72
2022/05/17 12:00:51;;;;;;;4.47;3.97;;;24.50;99.90;;;;;;5111514;28;20440;-73
2022/05/17 12:03:54;;;;;;;3.63;3.00;;;24.70;99.90;;;;;;5109068;28;20446;-71
2022/05/17 12:06:43;;;;;;;6.77;3.60;;;25.20;99.90;;;;;;5107223;28;20429;-72
2022/05/17 12:09:29;;;;;;;4.70;3.40;;;26.00;99.90;;;;;;5107323;28;20441;-72
2022/05/17 12:12:08;;;;;;;7.87;3.50;;;26.40;99.90;;;;;;5107661;28;20437;-72
2022/05/17 12:14:40;;;;;;;6.97;3.60;;;26.50;99.90;;;;;;5111191;28;20454;-72
2022/05/17 12:17:15;;;;;;;6.03;3.77;;;26.50;99.90;;;;;;5112838;28;20461;-72
2022/05/17 12:19:49;;;;;;;7.10;3.20;;;26.40;99.90;;;;;;5110624;28;20538;-71
2022/05/17 12:22:22;;;;;;;4.53;3.50;;;26.80;99.90;;;;;;5106474;28;20498;-73
2022/05/17 12:24:59;;;;;;;7.70;3.73;;;27.40;99.90;;;;;;5107287;28;20486;-73
2022/05/17 12:27:30;;;;;;;5.23;4.30;;;27.60;99.90;;;;;;5108231;28;20441;-72
2022/05/17 12:32:50;;;;;;;7.50;4.40;;;27.20;99.90;;;;;;5111769;28;20432;-72
2022/05/17 12:35:24;;;;;;;6.07;3.63;;;27.00;99.90;;;;;;5112180;28;20460;-72
2022/05/17 12:37:50;;;;;;;4.93;4.03;;;26.90;99.90;;;;;;5112002;28;20462;-72
2022/05/17 12:43:11;;;;;;;5.57;3.53;;;26.80;99.90;;;;;;5113590;28;20429;-72
2022/05/17 12:45:40;;;;;;;5.70;4.03;;;26.80;99.10;;;;;;5115246;28;20448;-73
2022/05/17 12:48:29;;;;;;;4.83;3.00;;;26.70;98.60;;;;;;5114619;28;20507;-72
2022/05/17 12:50:59;;;;;;;8.20;3.67;;;26.60;99.40;;;;;;5105953;28;20445;-73
2022/05/17 12:53:30;;;;;;;5.10;3.60;;;26.70;98.60;;;;;;5097450;28;20437;-74
2022/05/17 12:56:03;;;;;;;4.07;3.40;;;26.90;98.20;;;;;;5098225;28;20448;-74
2022/05/17 12:58:30;;;;;;;4.83;3.27;;;27.30;95.70;;;;;;5097841;28;20885;-74
2022/05/17 13:00:59;;;;;;;8.20;7.03;;;27.40;94.70;;;;;;5097499;28;20493;-75
2022/05/17 13:03:30;;;;;;;4.57;3.77;;;27.30;94.20;;;;;;5097204;28;20456;-73
2022/05/17 13:06:01;;;;;;;6.33;4.50;;;27.30;92.30;;;;;;5096805;28;20472;-73
2022/05/17 13:08:30;;;;;;;4.87;3.27;;;27.20;93.60;;;;;;5096925;28;20513;-75
2022/05/17 13:11:05;;;;;;;5.93;3.40;;;27.10;93.10;;;;;;5096697;28;20460;-74
2022/05/17 13:13:34;;;;;;;3.53;2.63;;;26.90;91.70;;;;;;5097136;28;20484;-74
2022/05/17 13:16:09;;;;;;;7.40;3.60;;;26.70;91.50;;;;;;5096726;28;20552;-74
2022/05/17 13:18:40;;;;;;;5.00;3.17;;;26.50;92.00;;;;;;5097363;28;20445;-74
2022/05/17 13:21:16;;;;;;;7.50;4.10;;;26.30;93.20;;;;;;5096885;28;20437;-74
2022/05/17 13:23:46;;;;;;;6.17;3.30;;;26.10;94.10;;;;;;5097182;28;20452;-74